Terminal Aerodrome Forecast
Issued by NWS Knoxville/Tri Cities, TN

Home | Current Version | Previous Version | Text Only | Print | Product List | Glossary On
Versions: 1 2 3 4 5 6 7 8 9 10 11 12 13 14 15 16 17 18 19 20 21 22 23 24 25 26 27 28 29 30 31 32 33 34 35
000
FTUS44 KMRX 291132
TAFTRI
TAF
KTRI 291132Z 2912/3012 00000KT 3/4SM BR FEW002 SCT080
      TEMPO 2912/2913 1SM BR SCT002
     FM291300 00000KT 2SM BR BKN004
     FM291400 VRB03KT P6SM SCT050
     FM292000 20006KT P6SM VCTS SCT040CB BKN250
     FM300100 VRB03KT P6SM VCSH BKN040 OVC080
     FM300600 00000KT 4SM BR SCT100 BKN250
     FM300900 00000KT 2SM BR BKN004=

USA.gov is the U.S. government's official web portal to all federal, state and local government web resources and services.